Time;durP1;ratioP1;P1;durP2;ratioP2;P2;SDS_P1;SDS_P2;PMS_P1;PMS_P2;Temp;Humidity;BMP_temperature;BMP_pressure;BME280_temperature;BME280_humidity;BME280_pressure;Samples;Min_cycle;Max_cycle;Signal;HPM_P1;HPM_P2
2021/03/11 00:00:41;;;;;;;5.18;2.87;;;-18.10;67.10;;;;;;4326289;32;20081;-59
2021/03/11 00:03:07;;;;;;;4.28;2.67;;;-18.00;67.00;;;;;;4350047;32;20094;-58
2021/03/11 00:05:38;;;;;;;5.53;3.17;;;-18.10;67.30;;;;;;4338848;32;20096;-59
2021/03/11 00:08:05;;;;;;;5.37;2.90;;;-18.10;67.20;;;;;;4326006;32;20523;-58
2021/03/11 00:10:32;;;;;;;4.18;2.65;;;-18.00;67.40;;;;;;4360092;32;20065;-58
2021/03/11 00:12:58;;;;;;;3.72;2.45;;;-18.10;67.20;;;;;;4335653;32;20161;-59
2021/03/11 00:15:24;;;;;;;4.68;3.00;;;-18.10;67.30;;;;;;4347447;32;20066;-58
2021/03/11 00:17:51;;;;;;;4.95;2.70;;;-18.10;67.40;;;;;;4336891;32;20535;-59
2021/03/11 00:20:22;;;;;;;4.75;2.65;;;-18.10;67.10;;;;;;4335401;32;20090;-59
2021/03/11 00:22:49;;;;;;;3.70;2.47;;;-18.10;67.30;;;;;;4348126;32;20096;-59
2021/03/11 00:25:17;;;;;;;4.20;2.90;;;-18.00;67.50;;;;;;4337268;32;20082;-58
2021/03/11 00:27:43;;;;;;;5.03;3.15;;;-18.20;67.20;;;;;;4347380;32;20062;-58
2021/03/11 00:30:11;;;;;;;3.67;2.70;;;-18.10;67.20;;;;;;4366065;32;20166;-58
2021/03/11 00:32:38;;;;;;;4.25;2.72;;;-18.20;66.80;;;;;;4338125;32;20505;-58
2021/03/11 00:35:06;;;;;;;4.60;2.78;;;-18.20;67.00;;;;;;4337934;32;20524;-58
2021/03/11 00:37:32;;;;;;;4.93;2.78;;;-18.20;67.10;;;;;;4337912;32;20174;-59
2021/03/11 00:39:59;;;;;;;6.10;3.47;;;-18.20;67.30;;;;;;4338142;32;20081;-59
2021/03/11 00:42:26;;;;;;;5.65;3.28;;;-18.20;67.60;;;;;;4337926;32;20073;-58
2021/03/11 00:44:53;;;;;;;6.07;3.20;;;-18.10;67.40;;;;;;4337968;32;20100;-59
2021/03/11 00:47:19;;;;;;;5.03;2.90;;;-18.20;67.20;;;;;;4348071;32;20062;-58
2021/03/11 00:49:45;;;;;;;6.45;2.85;;;-18.20;67.30;;;;;;4347672;32;20078;-59
2021/03/11 00:52:12;;;;;;;5.68;3.20;;;-18.20;67.30;;;;;;4344728;32;20075;-58
2021/03/11 00:54:39;;;;;;;5.12;3.30;;;-18.20;67.20;;;;;;4348009;32;20069;-60
2021/03/11 00:57:06;;;;;;;6.07;3.08;;;-18.20;67.10;;;;;;4347063;32;20183;-58
2021/03/11 00:59:33;;;;;;;3.85;2.97;;;-18.30;67.20;;;;;;4335917;32;20133;-59
2021/03/11 01:01:59;;;;;;;4.43;3.03;;;-18.30;67.50;;;;;;4350476;32;20086;-59
2021/03/11 01:04:25;;;;;;;5.50;3.03;;;-18.20;67.60;;;;;;4350548;32;20074;-59
2021/03/11 01:06:51;;;;;;;4.90;3.25;;;-18.30;67.20;;;;;;4355365;32;20669;-59
2021/03/11 01:09:17;;;;;;;4.50;3.00;;;-18.20;67.30;;;;;;4365364;32;20081;-59
2021/03/11 01:11:44;;;;;;;5.85;2.92;;;-18.20;67.30;;;;;;4352541;32;20164;-59
2021/03/11 01:14:10;;;;;;;5.75;3.00;;;-18.20;67.20;;;;;;4340825;32;20097;-58
2021/03/11 01:16:37;;;;;;;4.35;2.78;;;-18.20;67.10;;;;;;4328445;32;20090;-59
2021/03/11 01:19:03;;;;;;;5.32;2.90;;;-18.30;67.40;;;;;;4352551;32;20513;-59
2021/03/11 01:21:29;;;;;;;4.35;2.70;;;-18.30;67.50;;;;;;4328258;32;20170;-59
2021/03/11 01:23:55;;;;;;;5.18;3.33;;;-18.30;67.00;;;;;;4364955;32;20081;-59
2021/03/11 01:26:22;;;;;;;4.37;2.87;;;-18.50;67.40;;;;;;4340107;32;20154;-59
2021/03/11 01:28:48;;;;;;;5.78;3.20;;;-18.40;67.70;;;;;;4350655;32;20075;-58
2021/03/11 01:31:14;;;;;;;4.95;2.75;;;-18.30;67.70;;;;;;4370297;32;20091;-59
2021/03/11 01:33:40;;;;;;;4.10;2.58;;;-18.40;67.50;;;;;;4362435;32;20158;-60
2021/03/11 01:36:07;;;;;;;5.85;3.08;;;-18.50;67.60;;;;;;4364715;32;20108;-59
2021/03/11 01:38:33;;;;;;;4.65;2.67;;;-18.40;67.50;;;;;;4352126;32;20489;-60
2021/03/11 01:41:00;;;;;;;4.40;2.42;;;-18.30;67.40;;;;;;4364894;32;20139;-58
2021/03/11 01:43:27;;;;;;;4.37;2.60;;;-18.40;67.70;;;;;;4352144;32;20065;-59
2021/03/11 01:45:53;;;;;;;5.75;3.10;;;-18.30;67.60;;;;;;4364719;32;20067;-59
2021/03/11 01:48:19;;;;;;;4.07;2.70;;;-18.40;67.10;;;;;;4364564;32;20151;-58
2021/03/11 01:50:46;;;;;;;4.95;2.97;;;-18.30;67.20;;;;;;4340694;32;20528;-59
2021/03/11 01:53:12;;;;;;;6.20;3.35;;;-18.30;67.30;;;;;;4366112;32;20534;-59
2021/03/11 01:55:39;;;;;;;5.00;2.95;;;-18.40;67.60;;;;;;4341488;32;20117;-59
2021/03/11 01:58:05;;;;;;;5.28;2.70;;;-18.30;67.60;;;;;;4340407;32;20104;-59
2021/03/11 02:00:31;;;;;;;5.93;3.10;;;-18.40;67.50;;;;;;4340241;32;20089;-59
2021/03/11 02:02:57;;;;;;;4.93;2.75;;;-18.40;67.70;;;;;;4372647;32;20067;-60
2021/03/11 02:05:24;;;;;;;6.05;3.22;;;-18.40;67.90;;;;;;4337348;32;20074;-60
2021/03/11 02:07:50;;;;;;;4.03;2.83;;;-18.40;67.80;;;;;;4325421;32;20434;-58
2021/03/11 02:10:20;;;;;;;4.37;2.80;;;-18.50;67.70;;;;;;4349282;32;20078;-60
2021/03/11 02:13:06;;;;;;;4.68;2.95;;;-18.40;67.60;;;;;;4325477;32;20482;-59
2021/03/11 02:15:47;;;;;;;3.83;2.20;;;-18.50;67.60;;;;;;4350015;32;20077;-59
2021/03/11 02:18:30;;;;;;;3.67;2.62;;;-18.60;67.90;;;;;;4336737;32;20242;-59
2021/03/11 02:21:33;;;;;;;5.28;2.75;;;-18.50;68.30;;;;;;4353653;32;20062;-59
2021/03/11 02:24:21;;;;;;;4.30;2.60;;;-18.50;67.70;;;;;;4327229;32;20061;-58
2021/03/11 02:27:12;;;;;;;7.70;3.10;;;-18.40;68.00;;;;;;4363014;32;20105;-59
2021/03/11 02:29:41;;;;;;;5.80;3.15;;;-18.50;67.70;;;;;;4337151;32;20086;-58
2021/03/11 02:32:10;;;;;;;6.68;3.20;;;-18.60;67.40;;;;;;4349674;32;20067;-60
2021/03/11 02:34:40;;;;;;;5.53;3.12;;;-18.70;67.80;;;;;;4325224;32;20066;-59
2021/03/11 02:37:18;;;;;;;6.00;3.47;;;-18.50;68.50;;;;;;4325303;32;20081;-59
2021/03/11 02:39:50;;;;;;;7.32;3.85;;;-18.50;68.50;;;;;;4327354;32;20073;-59
2021/03/11 02:42:17;;;;;;;5.18;3.40;;;-18.60;68.00;;;;;;4326173;32;20509;-59
2021/03/11 02:44:43;;;;;;;7.85;3.45;;;-18.60;68.30;;;;;;4336539;32;20086;-59
2021/03/11 02:47:10;;;;;;;6.18;2.95;;;-18.60;68.50;;;;;;4349195;32;20074;-61
2021/03/11 02:49:36;;;;;;;5.80;3.03;;;-18.60;68.50;;;;;;4336509;32;20062;-59
2021/03/11 02:52:02;;;;;;;5.43;2.90;;;-18.70;68.70;;;;;;4349115;32;20094;-59
2021/03/11 02:54:29;;;;;;;6.78;2.85;;;-18.70;69.00;;;;;;4336767;32;20151;-59
2021/03/11 02:56:56;;;;;;;5.93;2.95;;;-18.70;69.10;;;;;;4359878;32;20086;-59
2021/03/11 02:59:22;;;;;;;8.07;2.97;;;-18.70;69.10;;;;;;4324458;32;20071;-59
2021/03/11 03:01:48;;;;;;;7.87;3.33;;;-18.60;69.40;;;;;;4349006;32;20141;-58
2021/03/11 03:04:14;;;;;;;6.50;3.20;;;-18.60;69.40;;;;;;4324567;32;20074;-59
2021/03/11 03:06:40;;;;;;;8.80;3.65;;;-18.50;68.90;;;;;;4328324;32;20524;-58
2021/03/11 03:09:08;;;;;;;8.80;4.68;;;-18.60;69.60;;;;;;4337710;32;20074;-59
2021/03/11 03:11:35;;;;;;;7.85;3.67;;;-18.50;69.70;;;;;;4334038;32;20075;-59
2021/03/11 03:14:02;;;;;;;5.72;3.37;;;-18.50;69.10;;;;;;4325586;32;20073;-59
2021/03/11 03:16:28;;;;;;;5.50;2.95;;;-18.40;69.10;;;;;;4342285;32;20128;-59
2021/03/11 03:18:55;;;;;;;5.62;2.92;;;-18.30;68.90;;;;;;4353525;32;20601;-59
2021/03/11 03:21:21;;;;;;;4.80;2.75;;;-18.30;68.70;;;;;;4340273;32;20163;-60
2021/03/11 03:23:47;;;;;;;5.03;2.45;;;-18.30;68.70;;;;;;4323605;32;20074;-59
2021/03/11 03:26:14;;;;;;;5.62;2.70;;;-18.10;68.60;;;;;;4336562;32;20070;-58
2021/03/11 03:28:40;;;;;;;4.50;2.60;;;-18.00;68.50;;;;;;4360316;32;20074;-59
2021/03/11 03:31:06;;;;;;;4.50;2.75;;;-18.20;68.20;;;;;;4327715;32;20062;-59
2021/03/11 03:33:32;;;;;;;7.25;5.20;;;-18.30;69.10;;;;;;4361551;32;20090;-58
2021/03/11 03:35:58;;;;;;;6.30;3.90;;;-18.30;70.00;;;;;;4362139;32;20070;-59
2021/03/11 03:38:25;;;;;;;6.90;3.28;;;-18.10;70.60;;;;;;4348419;32;20089;-59
2021/03/11 03:40:51;;;;;;;8.82;3.30;;;-18.30;70.00;;;;;;4362672;32;20074;-59
2021/03/11 03:43:26;;;;;;;7.28;3.50;;;-18.20;70.00;;;;;;4323907;32;20094;-59
2021/03/11 03:46:13;;;;;;;8.60;4.40;;;-18.30;70.30;;;;;;4324725;32;20095;-59
2021/03/11 03:48:49;;;;;;;7.62;4.30;;;-18.10;70.10;;;;;;4332521;32;20161;-59
2021/03/11 03:51:18;;;;;;;9.13;4.30;;;-18.10;69.90;;;;;;4335998;32;20081;-59
2021/03/11 03:53:56;;;;;;;8.93;4.25;;;-18.00;70.20;;;;;;4336094;32;20055;-59
2021/03/11 03:56:29;;;;;;;9.25;4.60;;;-17.90;69.80;;;;;;4352265;32;20074;-58
2021/03/11 03:59:03;;;;;;;8.20;4.00;;;-17.90;70.00;;;;;;4334831;32;20169;-58
2021/03/11 04:01:31;;;;;;;7.40;4.45;;;-17.90;70.10;;;;;;4329848;32;20508;-60
2021/03/11 04:03:59;;;;;;;9.43;5.03;;;-17.80;69.70;;;;;;4344277;32;20512;-60
2021/03/11 04:06:25;;;;;;;10.32;5.55;;;-17.90;70.60;;;;;;4338198;32;20149;-58
2021/03/11 04:08:51;;;;;;;8.60;5.25;;;-17.90;69.60;;;;;;4338183;32;20250;-59
2021/03/11 04:11:18;;;;;;;9.25;5.15;;;-17.80;69.20;;;;;;4325973;32;20501;-59
2021/03/11 04:13:46;;;;;;;10.10;5.05;;;-17.90;69.40;;;;;;4338081;32;20597;-60
2021/03/11 04:16:13;;;;;;;8.13;5.15;;;-17.80;69.40;;;;;;4326117;32;20167;-59
2021/03/11 04:18:39;;;;;;;11.82;5.47;;;-17.80;68.80;;;;;;4328491;32;20501;-59
2021/03/11 04:21:06;;;;;;;10.40;4.82;;;-17.80;68.40;;;;;;4311614;32;20086;-59
2021/03/11 04:23:35;;;;;;;9.45;4.40;;;-17.80;68.10;;;;;;4311403;32;20067;-59
2021/03/11 04:26:02;;;;;;;7.95;4.05;;;-17.70;68.00;;;;;;4311408;32;20081;-59
2021/03/11 04:28:28;;;;;;;10.77;4.57;;;-17.70;67.70;;;;;;4324395;32;20589;-58
2021/03/11 04:30:55;;;;;;;8.48;4.90;;;-17.70;67.40;;;;;;4344924;32;20166;-59
2021/03/11 04:33:21;;;;;;;8.25;4.55;;;-17.70;67.60;;;;;;4335241;32;20187;-59
2021/03/11 04:35:47;;;;;;;10.50;4.37;;;-17.50;67.70;;;;;;4335618;32;20070;-60
2021/03/11 04:38:14;;;;;;;7.15;3.62;;;-17.60;67.20;;;;;;4315265;32;20082;-59
2021/03/11 04:40:41;;;;;;;8.20;3.53;;;-17.50;67.20;;;;;;4315372;32;20082;-60
2021/03/11 04:43:07;;;;;;;6.28;4.05;;;-17.60;66.80;;;;;;4325747;32;20085;-59
2021/03/11 04:45:34;;;;;;;5.60;3.37;;;-17.50;66.60;;;;;;4299133;32;20078;-59
2021/03/11 04:48:01;;;;;;;6.40;3.60;;;-17.40;65.90;;;;;;4325997;32;20073;-58
2021/03/11 04:50:27;;;;;;;4.30;2.30;;;-17.40;65.70;;;;;;4336170;32;20526;-59
2021/03/11 04:52:54;;;;;;;8.73;3.22;;;-17.30;64.90;;;;;;4350391;32;20082;-59
2021/03/11 04:55:20;;;;;;;7.43;3.67;;;-17.20;64.60;;;;;;4350348;32;20501;-59
2021/03/11 04:57:46;;;;;;;5.40;2.92;;;-17.20;64.20;;;;;;4350038;32;20066;-60
2021/03/11 05:00:14;;;;;;;5.95;3.40;;;-17.20;63.60;;;;;;4350235;32;20089;-59
2021/03/11 05:02:41;;;;;;;6.37;3.37;;;-17.20;63.80;;;;;;4359487;32;20080;-60
2021/03/11 05:05:08;;;;;;;5.37;2.97;;;-17.10;64.00;;;;;;4323331;32;20514;-58
2021/03/11 05:07:34;;;;;;;5.30;3.15;;;-17.10;63.50;;;;;;4339934;32;20074;-59
2021/03/11 05:10:00;;;;;;;6.68;3.90;;;-17.00;63.50;;;;;;4356634;32;20070;-59
2021/03/11 05:12:27;;;;;;;8.00;4.53;;;-17.00;63.10;;;;;;4337688;32;20074;-59
2021/03/11 05:14:53;;;;;;;9.93;4.70;;;-16.90;63.50;;;;;;4337738;32;20500;-60
2021/03/11 05:17:19;;;;;;;7.60;3.90;;;-16.80;63.30;;;;;;4375432;32;20238;-59
2021/03/11 05:19:45;;;;;;;8.13;4.97;;;-16.70;63.20;;;;;;4337759;32;20108;-59
2021/03/11 05:22:12;;;;;;;8.90;3.80;;;-15.90;61.40;;;;;;4367182;32;20146;-58
2021/03/11 05:24:38;;;;;;;6.15;3.75;;;-14.30;56.60;;;;;;4332887;32;20563;-60
2021/03/11 05:27:05;;;;;;;4.70;3.05;;;-14.50;54.10;;;;;;4372153;32;20074;-60
2021/03/11 05:29:31;;;;;;;5.03;3.22;;;-14.40;53.50;;;;;;4323275;32;20540;-59
2021/03/11 05:31:57;;;;;;;5.28;2.53;;;-14.30;53.00;;;;;;4319686;32;20078;-59
2021/03/11 05:34:23;;;;;;;5.72;3.58;;;-13.90;52.90;;;;;;4347463;32;20078;-60
2021/03/11 05:36:50;;;;;;;5.43;3.30;;;-13.40;50.50;;;;;;4335373;32;20082;-59
2021/03/11 05:39:16;;;;;;;4.70;3.05;;;-14.00;49.80;;;;;;4335141;32;20071;-60
2021/03/11 05:41:43;;;;;;;5.32;3.28;;;-13.90;50.60;;;;;;4323111;32;20512;-60
2021/03/11 05:44:09;;;;;;;4.70;3.00;;;-14.00;49.70;;;;;;4323146;32;20075;-58
2021/03/11 05:46:39;;;;;;;4.72;3.30;;;-13.70;50.60;;;;;;4335768;32;20081;-59
2021/03/11 05:49:08;;;;;;;5.18;3.35;;;-13.50;50.40;;;;;;4324964;32;20236;-58
2021/03/11 05:51:35;;;;;;;6.50;3.60;;;-13.50;49.30;;;;;;4325705;32;20137;-60
2021/03/11 05:54:02;;;;;;;6.95;2.97;;;-12.90;49.10;;;;;;4325664;32;20174;-60
2021/03/11 05:56:28;;;;;;;5.85;3.10;;;-13.60;49.30;;;;;;4325437;32;20083;-59
2021/03/11 05:58:57;;;;;;;5.72;3.25;;;-12.90;48.50;;;;;;4337545;32;20081;-59
2021/03/11 06:01:26;;;;;;;4.15;2.50;;;-13.30;47.50;;;;;;4349554;32;20110;-59
2021/03/11 06:03:54;;;;;;;4.12;2.50;;;-13.10;48.90;;;;;;4325109;32;20066;-60
2021/03/11 06:06:23;;;;;;;3.92;2.50;;;-12.90;48.10;;;;;;4315399;32;20071;-58
2021/03/11 06:08:53;;;;;;;4.37;2.50;;;-13.50;48.90;;;;;;4328294;32;20069;-60
2021/03/11 06:11:19;;;;;;;5.93;2.60;;;-12.70;49.50;;;;;;4328352;32;20582;-59
2021/03/11 06:13:47;;;;;;;6.37;3.05;;;-12.80;49.00;;;;;;4327696;32;20493;-59
2021/03/11 06:16:21;;;;;;;4.72;2.67;;;-13.20;47.90;;;;;;4328350;32;20518;-59
2021/03/11 06:18:49;;;;;;;4.03;2.65;;;-13.40;49.30;;;;;;4327897;32;20074;-58
2021/03/11 06:21:17;;;;;;;6.40;2.92;;;-13.10;49.50;;;;;;4327751;32;20082;-59
2021/03/11 06:23:43;;;;;;;6.95;2.90;;;-14.10;52.60;;;;;;4352774;32;20093;-59
2021/03/11 06:26:13;;;;;;;5.32;3.10;;;-14.50;55.00;;;;;;4343491;32;20205;-59
2021/03/11 06:28:47;;;;;;;6.93;3.50;;;-14.20;55.60;;;;;;4363488;32;20086;-59
2021/03/11 06:31:33;;;;;;;5.93;3.53;;;-14.20;55.80;;;;;;4347956;32;20090;-59
2021/03/11 06:34:01;;;;;;;7.72;4.05;;;-14.00;56.10;;;;;;4351203;32;20074;-61
2021/03/11 06:36:30;;;;;;;10.40;3.12;;;-14.00;56.30;;;;;;4336697;32;20090;-60
2021/03/11 06:38:59;;;;;;;4.45;2.90;;;-13.90;55.80;;;;;;4357361;32;20609;-59
2021/03/11 06:41:43;;;;;;;4.72;2.75;;;-13.80;55.80;;;;;;4339472;32;20163;-59
2021/03/11 06:44:09;;;;;;;6.25;2.70;;;-13.60;56.10;;;;;;4360445;32;20426;-59
2021/03/11 06:46:35;;;;;;;4.60;2.90;;;-13.50;55.90;;;;;;4349964;32;20070;-59
2021/03/11 06:49:09;;;;;;;5.07;2.60;;;-13.20;55.90;;;;;;4361595;32;20085;-61
2021/03/11 06:51:35;;;;;;;5.20;2.50;;;-13.30;56.30;;;;;;4350366;32;20164;-60
2021/03/11 06:54:03;;;;;;;6.55;2.90;;;-13.30;57.00;;;;;;4325556;32;20503;-61
2021/03/11 06:56:29;;;;;;;4.85;2.42;;;-13.30;56.30;;;;;;4344031;32;20078;-61
2021/03/11 06:59:08;;;;;;;5.82;2.80;;;-13.20;57.20;;;;;;4337880;32;20070;-60
2021/03/11 07:01:35;;;;;;;6.15;2.95;;;-13.00;57.20;;;;;;4356999;32;20094;-62
2021/03/11 07:04:02;;;;;;;7.00;3.15;;;-12.80;56.50;;;;;;4365328;32;20079;-59
2021/03/11 07:06:33;;;;;;;5.00;3.00;;;-12.70;55.90;;;;;;4357438;32;20067;-61
2021/03/11 07:09:01;;;;;;;7.87;3.40;;;-12.80;56.30;;;;;;4363178;32;20077;-60
2021/03/11 07:11:28;;;;;;;7.10;2.83;;;-12.90;56.20;;;;;;4338838;32;20093;-61
2021/03/11 07:14:03;;;;;;;5.75;2.70;;;-13.20;56.30;;;;;;4348181;32;20090;-61
2021/03/11 07:16:33;;;;;;;3.80;2.62;;;-12.90;56.30;;;;;;4337201;32;20446;-60
2021/03/11 07:19:16;;;;;;;5.95;3.00;;;-12.90;55.90;;;;;;4324547;32;20081;-60
2021/03/11 07:21:46;;;;;;;4.43;2.78;;;-12.80;56.10;;;;;;4339746;32;20244;-60
2021/03/11 07:24:34;;;;;;;4.47;2.83;;;-12.90;56.40;;;;;;4340580;32;20097;-60
2021/03/11 07:27:00;;;;;;;6.32;2.92;;;-12.90;55.80;;;;;;4336146;32;20082;-61
2021/03/11 07:29:26;;;;;;;5.45;2.28;;;-12.90;55.60;;;;;;4339781;32;20067;-60
2021/03/11 07:31:56;;;;;;;5.15;2.72;;;-12.80;56.10;;;;;;4332197;32;20481;-60
2021/03/11 07:34:28;;;;;;;5.32;2.95;;;-12.50;55.60;;;;;;4328608;32;20075;-60
2021/03/11 07:36:58;;;;;;;3.78;2.33;;;-12.80;56.30;;;;;;4326230;32;20065;-61
2021/03/11 07:39:36;;;;;;;4.35;2.83;;;-12.30;57.10;;;;;;4335359;32;20093;-60
2021/03/11 07:42:08;;;;;;;4.95;2.95;;;-12.90;55.90;;;;;;4356999;32;20078;-61
2021/03/11 07:44:35;;;;;;;6.65;2.60;;;-12.40;56.30;;;;;;4324107;32;20445;-59
2021/03/11 07:47:06;;;;;;;4.35;2.65;;;-12.50;55.90;;;;;;4324864;32;20069;-59
2021/03/11 07:49:33;;;;;;;5.37;2.78;;;-12.10;57.70;;;;;;4330210;32;20596;-61
2021/03/11 07:52:01;;;;;;;5.78;2.72;;;-12.40;57.40;;;;;;4344170;32;20070;-59
2021/03/11 07:54:27;;;;;;;3.60;2.42;;;-12.30;57.60;;;;;;4346040;32;20074;-59
2021/03/11 07:56:54;;;;;;;3.50;2.60;;;-11.90;57.60;;;;;;4375061;32;20156;-61
2021/03/11 07:59:20;;;;;;;4.53;2.80;;;-12.10;57.30;;;;;;4338114;32;20073;-60
2021/03/11 08:01:59;;;;;;;7.10;2.70;;;-12.40;57.60;;;;;;4340761;32;20452;-61
2021/03/11 08:04:28;;;;;;;6.20;2.95;;;-12.10;58.90;;;;;;4341690;32;20109;-63
2021/03/11 08:07:24;;;;;;;5.07;2.90;;;-11.90;57.60;;;;;;4319856;32;20074;-62
2021/03/11 08:09:52;;;;;;;4.87;2.53;;;-12.30;57.60;;;;;;4344849;32;20089;-60
2021/03/11 08:12:41;;;;;;;4.70;2.70;;;-11.90;58.40;;;;;;4344675;32;20066;-62
2021/03/11 08:15:17;;;;;;;4.90;2.60;;;-12.20;58.60;;;;;;4323500;32;20522;-60
2021/03/11 08:17:48;;;;;;;4.95;2.97;;;-12.10;58.90;;;;;;4357169;32;20098;-61
2021/03/11 08:20:20;;;;;;;4.35;2.50;;;-12.20;58.90;;;;;;4335479;32;20101;-59
2021/03/11 08:22:54;;;;;;;6.50;3.03;;;-11.80;58.10;;;;;;4344216;32;20456;-59
2021/03/11 08:25:41;;;;;;;3.78;2.70;;;-11.80;58.60;;;;;;4364430;32;20078;-60
2021/03/11 08:28:08;;;;;;;5.70;2.70;;;-12.10;58.90;;;;;;4341071;32;20084;-60
2021/03/11 08:30:41;;;;;;;3.90;2.75;;;-11.50;58.70;;;;;;4337005;32;20169;-60
2021/03/11 08:33:10;;;;;;;4.68;2.30;;;-11.90;57.80;;;;;;4358852;32;20170;-61
2021/03/11 08:35:44;;;;;;;5.45;2.75;;;-11.70;58.30;;;;;;4353616;32;20095;-59
2021/03/11 08:38:19;;;;;;;5.15;2.78;;;-11.60;58.00;;;;;;4333389;32;20102;-58
2021/03/11 08:40:53;;;;;;;4.80;3.00;;;-11.70;58.00;;;;;;4360885;32;20151;-59
2021/03/11 08:43:43;;;;;;;2.97;2.20;;;-11.50;58.10;;;;;;4336958;32;20114;-58
2021/03/11 08:46:13;;;;;;;4.97;2.70;;;-11.50;58.00;;;;;;4349768;32;20055;-57
2021/03/11 08:48:40;;;;;;;4.22;2.37;;;-11.00;57.70;;;;;;4356401;32;20170;-60
2021/03/11 08:51:10;;;;;;;3.90;2.35;;;-11.30;58.10;;;;;;4350677;32;20177;-60
2021/03/11 08:53:42;;;;;;;4.62;2.58;;;-11.20;58.30;;;;;;4350218;32;20165;-61
2021/03/11 08:56:18;;;;;;;4.12;3.05;;;-11.30;58.20;;;;;;4357038;32;20539;-59
2021/03/11 08:58:59;;;;;;;5.37;2.72;;;-10.70;58.50;;;;;;4353593;32;20562;-60
2021/03/11 09:01:31;;;;;;;3.85;2.72;;;-11.10;57.80;;;;;;4345714;32;20097;-63
2021/03/11 09:03:58;;;;;;;7.12;2.97;;;-10.80;58.40;;;;;;4343143;32;20085;-60
2021/03/11 09:07:00;;;;;;;5.18;2.80;;;-11.10;59.00;;;;;;4339503;32;20087;-59
2021/03/11 09:09:51;;;;;;;4.62;2.67;;;-10.70;58.50;;;;;;4323844;32;20078;-60
2021/03/11 09:12:25;;;;;;;4.93;2.53;;;-10.70;58.50;;;;;;4341285;32;20508;-61
2021/03/11 09:14:57;;;;;;;3.47;2.00;;;-10.60;58.60;;;;;;4326138;32;20098;-62
2021/03/11 09:17:29;;;;;;;4.00;2.30;;;-10.40;57.50;;;;;;4329169;32;20489;-61
2021/03/11 09:20:04;;;;;;;4.28;2.40;;;-10.00;57.50;;;;;;4323840;32;20089;-61
2021/03/11 09:22:38;;;;;;;4.72;1.90;;;-10.60;57.50;;;;;;4349326;32;20116;-62
2021/03/11 09:25:11;;;;;;;7.65;2.80;;;-10.10;57.40;;;;;;4344475;32;20058;-64
2021/03/11 09:28:00;;;;;;;3.45;2.25;;;-10.40;57.50;;;;;;4362075;32;20476;-58
2021/03/11 09:30:37;;;;;;;6.45;2.58;;;-10.30;57.60;;;;;;4341912;32;20066;-60
2021/03/11 09:33:17;;;;;;;5.07;3.08;;;-10.40;57.70;;;;;;4349184;32;20070;-61
2021/03/11 09:35:44;;;;;;;5.30;3.15;;;-9.80;58.80;;;;;;4336416;32;20109;-61
2021/03/11 09:38:19;;;;;;;3.62;2.42;;;-9.80;58.00;;;;;;4343972;32;20272;-61
2021/03/11 09:40:49;;;;;;;5.25;2.58;;;-9.80;57.70;;;;;;4343991;32;20209;-59
2021/03/11 09:43:21;;;;;;;5.47;2.35;;;-9.60;58.60;;;;;;4345389;32;20117;-60
2021/03/11 09:45:49;;;;;;;4.47;2.45;;;-9.80;57.40;;;;;;4347361;32;20629;-59
2021/03/11 09:48:39;;;;;;;4.10;2.20;;;-9.40;56.70;;;;;;4348114;32;20061;-59
2021/03/11 09:51:28;;;;;;;5.05;2.37;;;-9.50;56.90;;;;;;4336191;32;20421;-60
2021/03/11 09:54:05;;;;;;;7.10;2.55;;;-9.50;56.00;;;;;;4336439;32;20071;-57
2021/03/11 09:56:39;;;;;;;5.22;2.90;;;-9.60;57.60;;;;;;4350741;32;20078;-58
2021/03/11 09:59:07;;;;;;;3.47;2.20;;;-9.50;56.40;;;;;;4337567;32;20536;-60
2021/03/11 10:01:44;;;;;;;3.03;2.10;;;-9.80;56.70;;;;;;4334521;32;20153;-59
2021/03/11 10:04:23;;;;;;;3.17;2.40;;;-9.50;58.00;;;;;;4345008;32;20149;-60
2021/03/11 10:07:05;;;;;;;4.40;2.62;;;-9.60;57.70;;;;;;4337528;32;20077;-63
2021/03/11 10:09:47;;;;;;;5.45;2.90;;;-9.10;57.80;;;;;;4319099;32;20094;-60
2021/03/11 10:12:13;;;;;;;5.00;2.35;;;-8.90;57.40;;;;;;4332323;32;20151;-60
2021/03/11 10:14:39;;;;;;;3.03;1.80;;;-9.30;57.00;;;;;;4343958;32;20156;-64
2021/03/11 10:17:06;;;;;;;5.28;2.30;;;-9.60;58.50;;;;;;4348429;32;20074;-63
2021/03/11 10:19:36;;;;;;;4.15;2.58;;;-9.20;58.80;;;;;;4358037;32;20078;-62
2021/03/11 10:22:25;;;;;;;4.65;2.75;;;-9.50;58.50;;;;;;4355357;32;20071;-61
2021/03/11 10:24:52;;;;;;;4.15;2.47;;;-9.60;59.10;;;;;;4344015;32;20078;-57
2021/03/11 10:27:31;;;;;;;4.55;2.75;;;-9.20;59.30;;;;;;4346331;32;20160;-59
2021/03/11 10:30:08;;;;;;;3.90;2.37;;;-9.30;60.20;;;;;;4355348;32;20078;-62
2021/03/11 10:32:35;;;;;;;6.53;2.20;;;-9.10;60.30;;;;;;4348557;32;20484;-60
2021/03/11 10:35:02;;;;;;;4.65;2.30;;;-9.40;60.80;;;;;;4333196;32;20178;-59
2021/03/11 10:37:40;;;;;;;5.20;2.40;;;-8.80;60.30;;;;;;4359702;32;20094;-60
2021/03/11 10:40:09;;;;;;;3.42;2.30;;;-8.90;60.10;;;;;;4325694;32;20094;-59
2021/03/11 10:42:47;;;;;;;3.72;2.15;;;-9.20;60.60;;;;;;4326363;32;20448;-60
2021/03/11 10:45:16;;;;;;;5.00;2.47;;;-8.60;59.60;;;;;;4317642;32;20165;-60
2021/03/11 10:47:43;;;;;;;4.87;2.20;;;-8.50;59.70;;;;;;4333252;32;20085;-61
2021/03/11 10:50:20;;;;;;;3.17;1.90;;;-8.70;58.70;;;;;;4347312;32;20081;-61
2021/03/11 10:52:55;;;;;;;3.92;2.80;;;-8.90;58.60;;;;;;4349743;32;20085;-60
2021/03/11 10:55:35;;;;;;;3.95;2.40;;;-8.90;59.50;;;;;;4326819;32;20072;-63
2021/03/11 10:58:04;;;;;;;3.62;1.45;;;-8.80;59.30;;;;;;4344042;32;20057;-62
2021/03/11 11:00:35;;;;;;;7.65;3.25;;;-8.60;57.10;;;;;;4336730;32;20473;-63
2021/03/11 11:03:04;;;;;;;4.65;2.47;;;-8.40;57.90;;;;;;4354408;32;20521;-59
2021/03/11 11:05:31;;;;;;;5.60;2.10;;;-8.10;57.90;;;;;;4324215;32;20067;-58
2021/03/11 11:07:57;;;;;;;5.80;2.80;;;-8.00;56.50;;;;;;4339413;32;20082;-63
2021/03/11 11:10:27;;;;;;;7.50;2.67;;;-7.80;56.90;;;;;;4340203;32;20523;-59
2021/03/11 11:12:53;;;;;;;9.05;2.72;;;-8.00;56.40;;;;;;4348254;32;20077;-59
2021/03/11 11:15:19;;;;;;;5.93;2.45;;;-8.00;56.60;;;;;;4359450;32;20062;-61
2021/03/11 11:17:46;;;;;;;3.05;2.03;;;-7.80;55.80;;;;;;4336035;32;20073;-58
2021/03/11 11:20:15;;;;;;;4.47;2.70;;;-7.70;55.20;;;;;;4350818;32;20092;-59
2021/03/11 11:22:42;;;;;;;4.25;2.37;;;-7.70;55.40;;;;;;4325750;32;20163;-62
2021/03/11 11:25:09;;;;;;;5.55;2.67;;;-8.20;57.30;;;;;;4356599;32;20159;-62
2021/03/11 11:27:35;;;;;;;5.65;2.53;;;-7.90;57.50;;;;;;4320835;32;20067;-61
2021/03/11 11:30:05;;;;;;;8.27;3.12;;;-8.00;56.90;;;;;;4332257;32;20070;-59
2021/03/11 11:32:31;;;;;;;4.68;2.60;;;-7.50;57.10;;;;;;4343992;32;20066;-60
2021/03/11 11:34:58;;;;;;;6.45;2.78;;;-8.10;58.00;;;;;;4348654;32;20112;-59
2021/03/11 11:37:24;;;;;;;4.95;3.37;;;-8.20;57.30;;;;;;4335430;32;20082;-63
2021/03/11 11:39:50;;;;;;;5.60;2.50;;;-8.10;57.50;;;;;;4360049;32;20155;-62
2021/03/11 11:42:16;;;;;;;3.50;2.25;;;-8.40;57.20;;;;;;4352292;32;20078;-64
2021/03/11 11:44:44;;;;;;;3.95;2.60;;;-8.10;58.30;;;;;;4337349;32;20082;-63
2021/03/11 11:47:10;;;;;;;3.47;2.33;;;-8.30;58.70;;;;;;4345955;32;20449;-60
2021/03/11 11:49:37;;;;;;;5.25;2.95;;;-8.10;58.10;;;;;;4348292;32;20075;-59
2021/03/11 11:52:03;;;;;;;4.28;2.67;;;-7.80;58.00;;;;;;4336069;32;20073;-63
2021/03/11 11:54:30;;;;;;;8.32;2.53;;;-7.40;56.50;;;;;;4331308;32;20155;-60
2021/03/11 11:56:56;;;;;;;4.90;2.60;;;-7.70;56.90;;;;;;4344680;32;20090;-69
2021/03/11 11:59:22;;;;;;;6.72;2.80;;;-7.60;56.40;;;;;;4345666;32;20138;-63
2021/03/11 12:01:48;;;;;;;5.07;2.90;;;-7.50;56.40;;;;;;4352270;32;20089;-59
2021/03/11 12:04:15;;;;;;;5.55;2.80;;;-7.40;56.30;;;;;;4356889;32;20105;-59
2021/03/11 12:06:41;;;;;;;11.45;2.80;;;-7.70;56.30;;;;;;4351494;32;20070;-61
2021/03/11 12:09:07;;;;;;;6.18;2.40;;;-7.60;59.10;;;;;;4354547;32;20588;-60
2021/03/11 12:11:34;;;;;;;6.12;2.70;;;-7.60;59.10;;;;;;4355366;32;20097;-62
2021/03/11 12:14:01;;;;;;;5.35;2.65;;;-7.50;60.00;;;;;;4341640;32;20442;-63
2021/03/11 12:16:28;;;;;;;6.47;3.10;;;-7.90;59.00;;;;;;4353746;32;20106;-60
2021/03/11 12:18:54;;;;;;;6.53;2.80;;;-8.00;59.90;;;;;;4353734;32;20087;-63
2021/03/11 12:21:21;;;;;;;4.22;2.97;;;-8.30;62.90;;;;;;4336519;32;20073;-66
2021/03/11 12:23:47;;;;;;;6.30;2.95;;;-8.00;63.30;;;;;;4346836;32;20086;-58
2021/03/11 12:26:15;;;;;;;5.97;2.72;;;-8.00;63.20;;;;;;4351872;32;20089;-60
2021/03/11 12:28:42;;;;;;;7.62;3.25;;;-8.00;62.70;;;;;;4339961;32;20091;-61
2021/03/11 12:31:08;;;;;;;4.65;2.75;;;-8.20;64.70;;;;;;4329347;32;20658;-58
2021/03/11 12:33:34;;;;;;;6.53;2.60;;;-8.30;65.50;;;;;;4339769;32;20071;-58
2021/03/11 12:36:01;;;;;;;4.53;3.15;;;-7.90;64.70;;;;;;4355276;32;20144;-61
2021/03/11 12:38:27;;;;;;;6.15;3.28;;;-7.70;64.80;;;;;;4361080;32;20530;-61
2021/03/11 12:40:54;;;;;;;4.85;2.50;;;-7.90;67.40;;;;;;4344968;32;20062;-60
2021/03/11 12:45:59;;;;;;;4.80;2.72;;;-8.60;69.50;;;;;;3822292;37;20058;-60
2021/03/11 12:48:26;;;;;;;3.90;2.70;;;-8.60;71.20;;;;;;4398404;32;20105;-61
2021/03/11 12:50:53;;;;;;;5.55;3.10;;;-8.30;70.80;;;;;;4379401;32;20083;-61
2021/03/11 12:53:19;;;;;;;6.18;3.92;;;-8.70;72.80;;;;;;4405071;32;20529;-62